Time;durP1;ratioP1;P1;durP2;ratioP2;P2;SDS_P1;SDS_P2;PMS_P1;PMS_P2;Temp;Humidity;BMP_temperature;BMP_pressure;BME280_temperature;BME280_humidity;BME280_pressure;Samples;Min_cycle;Max_cycle;Signal;HPM_P1;HPM_P2
2023/02/10 00:00:46;;;;;;;;;;;;;;;23.35;29.67;96874.44;4965808;28;1902;-65
2023/02/10 00:03:12;;;;;;;;;;;;;;;23.64;29.27;96873.72;4973499;28;1410;-65
2023/02/10 00:05:37;;;;;;;;;;;;;;;23.64;29.23;96868.38;4962700;28;1322;-65
2023/02/10 00:08:02;;;;;;;;;;;;;;;23.67;29.28;96880.56;4967813;28;1397;-65
2023/02/10 00:10:28;;;;;;;;;;;;;;;23.65;29.02;96871.88;4953784;28;1337;-65
2023/02/10 00:12:53;;;;;;;;;;;;;;;23.51;29.66;96874.34;4969632;28;1437;-65
2023/02/10 00:15:18;;;;;;;;;;;;;;;23.42;30.17;96875.38;4963143;28;1428;-66
2023/02/10 00:17:44;;;;;;;;;;;;;;;23.51;29.84;96874.34;4964342;28;1409;-66
2023/02/10 00:20:09;;;;;;;;;;;;;;;23.42;30.11;96872.72;4945493;28;1979;-66
2023/02/10 00:22:35;;;;;;;;;;;;;;;23.47;29.81;96872.19;4955650;28;904;-65
2023/02/10 00:25:01;;;;;;;;;;;;;;;23.52;30.60;96873.31;4956905;28;1323;-67
2023/02/10 00:27:26;;;;;;;;;;;;;;;23.57;30.30;96870.94;4966695;28;1334;-65
2023/02/10 00:29:51;;;;;;;;;;;;;;;23.65;29.78;96863.84;4960253;28;1354;-66
2023/02/10 00:32:17;;;;;;;;;;;;;;;23.57;30.05;96868.25;4962644;28;1310;-65
2023/02/10 00:34:42;;;;;;;;;;;;;;;23.50;30.21;96855.75;4973638;28;1184;-65
2023/02/10 00:37:08;;;;;;;;;;;;;;;23.66;30.50;96860.16;4957021;28;1291;-65
2023/02/10 00:39:33;;;;;;;;;;;;;;;23.70;29.79;96856.09;4956736;28;1434;-63
2023/02/10 00:41:58;;;;;;;;;;;;;;;23.72;29.41;96859.47;4965018;28;1963;-63
2023/02/10 00:44:23;;;;;;;;;;;;;;;23.73;29.17;96845.03;4951398;28;1410;-64
2023/02/10 00:46:49;;;;;;;;;;;;;;;23.71;29.47;96852.47;4955122;28;1366;-64
2023/02/10 00:49:14;;;;;;;;;;;;;;;23.67;29.30;96837.69;4969812;28;1342;-64
2023/02/10 00:51:39;;;;;;;;;;;;;;;23.64;29.37;96846.09;4960106;28;1424;-64
2023/02/10 00:54:05;;;;;;;;;;;;;;;23.65;29.51;96843.25;4964645;28;1016;-64
2023/02/10 00:56:30;;;;;;;;;;;;;;;23.64;29.55;96832.72;4965189;28;1386;-65
2023/02/10 00:58:55;;;;;;;;;;;;;;;23.60;29.55;96834.91;4960728;28;1445;-64
2023/02/10 01:01:21;;;;;;;;;;;;;;;23.63;29.68;96837.25;4956028;28;1915;-64
2023/02/10 01:03:46;;;;;;;;;;;;;;;23.57;29.48;96836.13;4971643;28;1385;-64
2023/02/10 01:06:14;;;;;;;;;;;;;;;23.61;29.54;96831.22;4957360;28;1393;-64
2023/02/10 01:08:39;;;;;;;;;;;;;;;23.60;29.59;96826.06;4969039;28;1358;-64
2023/02/10 01:11:06;;;;;;;;;;;;;;;23.57;29.62;96833.44;4966745;28;1396;-64
2023/02/10 01:13:33;;;;;;;;;;;;;;;23.62;29.61;96832.03;4961645;28;1401;-64
2023/02/10 01:15:59;;;;;;;;;;;;;;;23.62;29.69;96832.03;4966779;28;1401;-64
2023/02/10 01:18:24;;;;;;;;;;;;;;;23.61;29.53;96828.53;4959368;28;1358;-65
2023/02/10 01:20:49;;;;;;;;;;;;;;;23.64;29.71;96824.66;4974032;28;1918;-65
2023/02/10 01:23:15;;;;;;;;;;;;;;;23.61;29.83;96819.66;4958180;28;1330;-65
2023/02/10 01:25:40;;;;;;;;;;;;;;;23.62;29.64;96813.28;4953448;29;1257;-65
2023/02/10 01:28:06;;;;;;;;;;;;;;;23.65;29.98;96813.78;4944852;28;1070;-64
2023/02/10 01:30:31;;;;;;;;;;;;;;;23.64;29.82;96809.41;4954663;28;797;-65
2023/02/10 01:32:56;;;;;;;;;;;;;;;23.61;30.16;96812.47;4954836;28;889;-65
2023/02/10 01:35:21;;;;;;;;;;;;;;;23.62;30.10;96815.97;4968551;28;1357;-64
2023/02/10 01:37:47;;;;;;;;;;;;;;;23.60;30.17;96802.75;4973806;28;735;-65
2023/02/10 01:40:12;;;;;;;;;;;;;;;23.61;30.23;96809.78;4963860;28;1902;-64
2023/02/10 01:42:45;;;;;;;;;;;;;;;23.59;30.14;96806.44;4974058;28;869;-64
2023/02/10 01:45:23;;;;;;;;;;;;;;;23.62;30.18;96805.25;4973757;28;829;-64
2023/02/10 01:47:50;;;;;;;;;;;;;;;23.58;30.15;96802.94;4973680;28;936;-64
2023/02/10 01:50:16;;;;;;;;;;;;;;;23.60;30.39;96804.63;4966048;28;1288;-64
2023/02/10 01:52:42;;;;;;;;;;;;;;;23.62;30.33;96795.34;4963509;28;1240;-64
2023/02/10 01:55:12;;;;;;;;;;;;;;;23.60;30.28;96796.59;4972195;28;1366;-65
2023/02/10 01:57:39;;;;;;;;;;;;;;;23.58;30.38;96788.72;4957064;28;1458;-64
2023/02/10 02:00:06;;;;;;;;;;;;;;;23.59;30.16;96790.38;4956372;28;1291;-64
2023/02/10 02:02:34;;;;;;;;;;;;;;;23.58;30.38;96792.22;4957489;28;1903;-64
2023/02/10 02:05:00;;;;;;;;;;;;;;;23.57;30.65;96782.53;4962500;28;1339;-64
2023/02/10 02:07:28;;;;;;;;;;;;;;;23.57;30.56;96781.69;4961777;28;1412;-63
2023/02/10 02:09:55;;;;;;;;;;;;;;;23.62;30.83;96773.91;4956876;28;1390;-64
2023/02/10 02:12:41;;;;;;;;;;;;;;;23.61;30.54;96777.63;4974513;28;1418;-63
2023/02/10 02:15:12;;;;;;;;;;;;;;;23.63;30.95;96774.78;4968247;28;1346;-64
2023/02/10 02:17:42;;;;;;;;;;;;;;;23.67;30.80;96768.84;4972004;28;1359;-64
2023/02/10 02:22:57;;;;;;;;;;;;;;;23.61;31.03;96764.22;4958572;28;1320;-65
2023/02/10 02:25:33;;;;;;;;;;;;;;;23.64;31.12;96757.69;4951223;28;1177;-65
2023/02/10 02:28:04;;;;;;;;;;;;;;;23.65;31.09;96760.19;4970341;28;1461;-65
2023/02/10 02:30:35;;;;;;;;;;;;;;;23.66;31.25;96764.53;4962194;28;1410;-66
2023/02/10 02:33:04;;;;;;;;;;;;;;;23.64;31.33;96763.03;4975344;28;1397;-65
2023/02/10 02:35:37;;;;;;;;;;;;;;;23.62;31.39;96768.56;4970681;28;1349;-65
2023/02/10 02:38:03;;;;;;;;;;;;;;;23.62;31.17;96755.16;4955724;28;1259;-65
2023/02/10 02:40:28;;;;;;;;;;;;;;;23.66;31.34;96764.53;4968720;28;1906;-65
2023/02/10 02:42:53;;;;;;;;;;;;;;;23.64;31.24;96755.81;4957655;28;1413;-65
2023/02/10 02:45:20;;;;;;;;;;;;;;;23.61;31.47;96755.38;4957874;28;1427;-66
2023/02/10 02:47:57;;;;;;;;;;;;;;;23.63;31.49;96756.03;4966847;28;1044;-67
2023/02/10 02:50:37;;;;;;;;;;;;;;;23.61;31.40;96756.19;4965309;28;1472;-66
2023/02/10 02:53:09;;;;;;;;;;;;;;;23.61;31.53;96755.38;4976630;28;814;-65
2023/02/10 02:55:34;;;;;;;;;;;;;;;23.62;31.05;96757.84;4981723;28;1359;-65
2023/02/10 02:58:04;;;;;;;;;;;;;;;23.63;31.37;96753.34;4972503;28;881;-63
2023/02/10 03:00:30;;;;;;;;;;;;;;;23.68;31.24;96756.28;4966589;28;1968;-64
2023/02/10 03:02:57;;;;;;;;;;;;;;;23.61;31.53;96753.50;4963868;28;1355;-64
2023/02/10 03:05:27;;;;;;;;;;;;;;;23.61;31.65;96760.72;4961931;28;1374;-64
2023/02/10 03:07:53;;;;;;;;;;;;;;;23.59;31.40;96763.56;4973331;28;1350;-65
2023/02/10 03:10:18;;;;;;;;;;;;;;;23.57;31.30;96754.91;4948328;28;1224;-64
2023/02/10 03:12:43;;;;;;;;;;;;;;;23.63;31.41;96747.97;4962480;28;1311;-65
2023/02/10 03:15:09;;;;;;;;;;;;;;;23.67;31.58;96757.31;4974807;28;1327;-64
2023/02/10 03:17:34;;;;;;;;;;;;;;;23.58;31.71;96757.38;4976650;28;1341;-64
2023/02/10 03:19:59;;;;;;;;;;;;;;;23.58;32.47;96762.75;4963557;28;1334;-65
2023/02/10 03:22:24;;;;;;;;;;;;;;;23.54;32.16;96761.47;4962005;28;1968;-65
2023/02/10 03:24:50;;;;;;;;;;;;;;;23.61;31.89;96763.41;4955672;28;1284;-66
2023/02/10 03:27:15;;;;;;;;;;;;;;;23.61;32.03;96766.09;4974084;28;1409;-66
2023/02/10 03:29:41;;;;;;;;;;;;;;;23.63;31.86;96758.72;4957839;28;1417;-65
2023/02/10 03:32:07;;;;;;;;;;;;;;;23.66;31.69;96758.34;4956924;28;1342;-66
2023/02/10 03:34:32;;;;;;;;;;;;;;;23.62;31.98;96762.38;4950954;28;1278;-66
2023/02/10 03:36:57;;;;;;;;;;;;;;;23.63;31.98;96758.72;4957633;28;1366;-66
2023/02/10 03:39:22;;;;;;;;;;;;;;;23.65;31.78;96756.66;4974876;28;1485;-65
2023/02/10 03:41:48;;;;;;;;;;;;;;;23.67;31.74;96754.63;4961681;28;1903;-65
2023/02/10 03:44:13;;;;;;;;;;;;;;;23.65;31.55;96749.47;4946847;28;1166;-66
2023/02/10 03:46:38;;;;;;;;;;;;;;;23.62;31.87;96748.97;4968069;28;1303;-66
2023/02/10 03:49:04;;;;;;;;;;;;;;;23.62;31.87;96741.78;4960568;28;1338;-65
2023/02/10 03:51:29;;;;;;;;;;;;;;;23.58;31.93;96746.66;4972085;28;1377;-66
2023/02/10 03:53:55;;;;;;;;;;;;;;;23.53;31.96;96740.19;4956487;28;1349;-65
2023/02/10 03:56:20;;;;;;;;;;;;;;;23.52;32.14;96742.03;4965294;28;1349;-65
2023/02/10 03:58:45;;;;;;;;;;;;;;;23.57;31.88;96739.66;4959744;28;1338;-64
2023/02/10 04:01:12;;;;;;;;;;;;;;;23.57;32.16;96745.00;4961520;28;1903;-64
2023/02/10 04:03:38;;;;;;;;;;;;;;;23.60;32.17;96743.00;4973261;28;1346;-65
2023/02/10 04:06:03;;;;;;;;;;;;;;;23.54;30.80;96745.38;4966276;28;1362;-65
2023/02/10 04:08:29;;;;;;;;;;;;;;;23.62;31.28;96740.94;4955245;28;1275;-65
2023/02/10 04:10:54;;;;;;;;;;;;;;;23.65;31.16;96741.44;4973776;28;1338;-65
2023/02/10 04:13:19;;;;;;;;;;;;;;;22.55;22.75;96732.88;4966557;28;1390;-64
2023/02/10 04:15:45;;;;;;;;;;;;;;;20.35;21.68;96734.72;4956807;28;1510;-63
2023/02/10 04:18:10;;;;;;;;;;;;;;;18.73;21.17;96739.63;4956866;28;1394;-63
2023/02/10 04:20:35;;;;;;;;;;;;;;;17.84;21.47;96742.91;4968213;28;1981;-63
2023/02/10 04:23:01;;;;;;;;;;;;;;;17.15;21.24;96746.69;4955498;29;802;-64
2023/02/10 04:25:26;;;;;;;;;;;;;;;16.55;20.69;96743.31;4961256;28;1348;-64
2023/02/10 04:27:51;;;;;;;;;;;;;;;16.24;20.97;96740.75;4956699;28;1354;-64
2023/02/10 04:30:16;;;;;;;;;;;;;;;16.07;20.88;96744.06;4945270;28;1435;-64
2023/02/10 04:32:42;;;;;;;;;;;;;;;15.94;20.39;96742.50;4966226;28;1410;-63
2023/02/10 04:35:07;;;;;;;;;;;;;;;15.69;20.67;96741.13;4969759;28;1257;-63
2023/02/10 04:37:32;;;;;;;;;;;;;;;15.50;20.93;96741.00;4964817;28;1468;-67
2023/02/10 04:39:58;;;;;;;;;;;;;;;15.85;21.32;96745.09;4973157;28;1236;-65
2023/02/10 04:42:29;;;;;;;;;;;;;;;15.66;20.49;96744.00;4954195;28;1911;-68
2023/02/10 04:44:55;;;;;;;;;;;;;;;15.92;21.71;96756.81;4966680;28;1301;-64
2023/02/10 04:47:20;;;;;;;;;;;;;;;17.14;22.87;96755.66;4972222;28;1498;-65
2023/02/10 04:49:45;;;;;;;;;;;;;;;16.91;20.39;96755.09;4961986;28;1299;-64
2023/02/10 04:52:10;;;;;;;;;;;;;;;17.55;22.52;96753.59;4962560;28;1355;-65
2023/02/10 04:54:36;;;;;;;;;;;;;;;18.39;22.84;96747.41;4955200;28;1337;-66
2023/02/10 04:57:01;;;;;;;;;;;;;;;18.96;22.69;96747.19;4953764;28;1453;-66
2023/02/10 04:59:26;;;;;;;;;;;;;;;19.38;22.61;96746.50;4953724;28;1470;-66
2023/02/10 05:01:51;;;;;;;;;;;;;;;19.67;22.71;96744.41;4964206;28;1914;-66
2023/02/10 05:04:17;;;;;;;;;;;;;;;19.94;22.92;96746.03;4945135;28;1260;-68
2023/02/10 05:06:42;;;;;;;;;;;;;;;20.34;23.77;96749.88;4940825;28;11073;-70
2023/02/10 05:09:08;;;;;;;;;;;;;;;20.01;20.93;96751.59;4938278;28;11382;-65
2023/02/10 05:11:33;;;;;;;;;;;;;;;19.01;22.67;96752.84;4936045;29;1447;-65
2023/02/10 05:13:59;;;;;;;;;;;;;;;19.36;24.07;96756.50;4941716;29;1411;-65
2023/02/10 05:16:25;;;;;;;;;;;;;;;19.85;24.12;96760.31;4942563;28;1432;-65
2023/02/10 05:18:50;;;;;;;;;;;;;;;20.21;23.96;96765.50;4952705;28;1383;-65
2023/02/10 05:21:15;;;;;;;;;;;;;;;20.42;24.07;96768.56;4941626;28;1972;-65
2023/02/10 05:23:41;;;;;;;;;;;;;;;20.57;24.01;96776.81;4935527;29;957;-65
2023/02/10 05:26:06;;;;;;;;;;;;;;;20.71;24.28;96774.50;4930785;29;1159;-65
2023/02/10 05:28:31;;;;;;;;;;;;;;;20.79;24.19;96777.22;4930372;29;1232;-66
2023/02/10 05:30:56;;;;;;;;;;;;;;;20.88;24.38;96782.38;4935455;29;949;-65
2023/02/10 05:33:22;;;;;;;;;;;;;;;20.98;24.24;96792.09;4935543;29;859;-65
2023/02/10 05:35:48;;;;;;;;;;;;;;;21.05;24.39;96798.41;4935324;29;1120;-65
2023/02/10 05:38:13;;;;;;;;;;;;;;;21.11;24.46;96797.75;4924159;29;1197;-64
2023/02/10 05:40:38;;;;;;;;;;;;;;;21.18;24.30;96798.78;4935274;29;1907;-65
2023/02/10 05:43:04;;;;;;;;;;;;;;;21.23;24.34;96815.13;4935335;29;870;-64
2023/02/10 05:45:29;;;;;;;;;;;;;;;21.28;24.30;96815.44;4938826;29;902;-65
2023/02/10 05:47:54;;;;;;;;;;;;;;;21.33;24.36;96815.78;4939321;29;858;-65
2023/02/10 05:50:20;;;;;;;;;;;;;;;21.38;24.29;96815.34;4929284;29;1216;-65
2023/02/10 05:52:45;;;;;;;;;;;;;;;21.43;24.39;96814.81;4939439;29;857;-66
2023/02/10 05:55:10;;;;;;;;;;;;;;;21.47;24.47;96814.34;4939121;29;905;-66
2023/02/10 05:57:35;;;;;;;;;;;;;;;21.50;24.33;96811.31;4939113;29;779;-66
2023/02/10 06:00:02;;;;;;;;;;;;;;;21.54;24.39;96812.69;4934375;29;977;-66
2023/02/10 06:02:27;;;;;;;;;;;;;;;21.58;24.48;96812.34;4932646;29;1918;-66
2023/02/10 06:04:52;;;;;;;;;;;;;;;21.62;24.44;96821.66;4939122;29;882;-67
2023/02/10 06:07:18;;;;;;;;;;;;;;;21.64;24.35;96817.00;4938837;29;1207;-66
2023/02/10 06:09:44;;;;;;;;;;;;;;;21.65;24.50;96822.16;4938868;29;803;-66
2023/02/10 06:12:10;;;;;;;;;;;;;;;21.67;24.65;96830.84;4927949;29;1343;-66
2023/02/10 06:14:37;;;;;;;;;;;;;;;21.70;24.46;96835.03;4938631;29;1018;-66
2023/02/10 06:17:03;;;;;;;;;;;;;;;21.73;24.49;96830.16;4938786;29;881;-66
2023/02/10 06:19:28;;;;;;;;;;;;;;;21.75;24.63;96833.53;4937524;29;1299;-66
2023/02/10 06:21:53;;;;;;;;;;;;;;;21.77;24.58;96836.88;4938680;29;1906;-66
2023/02/10 06:24:19;;;;;;;;;;;;;;;21.81;24.74;96841.88;4928885;29;1142;-66
2023/02/10 06:26:44;;;;;;;;;;;;;;;21.83;24.54;96837.16;4938630;29;811;-66
2023/02/10 06:29:09;;;;;;;;;;;;;;;21.85;24.48;96846.69;4938566;29;802;-66
2023/02/10 06:31:35;;;;;;;;;;;;;;;21.86;24.66;96848.38;4938833;29;821;-66
2023/02/10 06:34:00;;;;;;;;;;;;;;;21.88;24.59;96845.53;4948501;28;1336;-66
2023/02/10 06:36:25;;;;;;;;;;;;;;;21.93;24.70;96851.19;4933449;29;955;-66
2023/02/10 06:38:51;;;;;;;;;;;;;;;21.96;24.72;96850.84;4938459;29;871;-66
2023/02/10 06:41:16;;;;;;;;;;;;;;;22.01;24.48;96848.53;4938330;29;1895;-64
2023/02/10 06:43:42;;;;;;;;;;;;;;;22.01;24.52;96844.00;4938301;29;792;-65
2023/02/10 06:46:07;;;;;;;;;;;;;;;22.04;24.63;96847.34;4928591;29;1087;-64
2023/02/10 06:48:33;;;;;;;;;;;;;;;22.06;24.66;96856.88;4937982;29;1245;-65
2023/02/10 06:50:58;;;;;;;;;;;;;;;22.09;24.49;96855.69;4938456;29;868;-65
2023/02/10 06:53:23;;;;;;;;;;;;;;;22.09;24.64;96856.53;4938096;29;956;-65
2023/02/10 06:55:49;;;;;;;;;;;;;;;22.11;24.74;96862.50;4951460;28;1298;-65
2023/02/10 06:58:14;;;;;;;;;;;;;;;22.15;24.48;96861.19;4928342;29;950;-65
2023/02/10 07:00:39;;;;;;;;;;;;;;;22.16;24.63;96862.84;4953025;28;1986;-65
2023/02/10 07:03:05;;;;;;;;;;;;;;;22.21;24.66;96871.22;4938357;29;941;-65
2023/02/10 07:05:31;;;;;;;;;;;;;;;22.23;24.53;96869.22;4937931;29;868;-65
2023/02/10 07:07:58;;;;;;;;;;;;;;;22.28;24.47;96870.53;4936196;29;1218;-66
2023/02/10 07:10:24;;;;;;;;;;;;;;;22.29;24.78;96857.00;4929184;29;1185;-65
2023/02/10 07:12:51;;;;;;;;;;;;;;;22.31;24.54;96859.50;4938210;29;867;-65
2023/02/10 07:15:18;;;;;;;;;;;;;;;22.36;24.58;96865.19;4952559;28;1193;-65
2023/02/10 07:17:43;;;;;;;;;;;;;;;22.37;24.68;96869.50;4937908;29;888;-66
2023/02/10 07:20:09;;;;;;;;;;;;;;;22.39;24.42;96856.81;4928133;29;1076;-65
2023/02/10 07:22:34;;;;;;;;;;;;;;;22.39;24.50;96856.81;4937303;29;1915;-65
2023/02/10 07:24:59;;;;;;;;;;;;;;;22.41;24.71;96860.16;4937676;29;885;-65
2023/02/10 07:27:25;;;;;;;;;;;;;;;22.45;24.62;96856.97;4937556;29;865;-65
2023/02/10 07:29:50;;;;;;;;;;;;;;;22.45;24.60;96856.13;4952530;28;1213;-65
2023/02/10 07:32:15;;;;;;;;;;;;;;;22.50;24.72;96855.59;4927654;29;1086;-65
2023/02/10 07:34:41;;;;;;;;;;;;;;;22.52;24.65;96851.75;4937409;29;921;-65
2023/02/10 07:37:07;;;;;;;;;;;;;;;22.55;24.74;96847.91;4937685;29;858;-65
2023/02/10 07:39:32;;;;;;;;;;;;;;;22.58;24.82;96840.38;4937317;29;837;-68
2023/02/10 07:41:57;;;;;;;;;;;;;;;22.59;24.66;96836.66;4937318;29;1906;-65
2023/02/10 07:44:22;;;;;;;;;;;;;;;22.65;24.51;96843.16;4942404;28;1179;-65
2023/02/10 07:46:48;;;;;;;;;;;;;;;22.66;24.56;96845.69;4937299;29;810;-65
2023/02/10 07:49:13;;;;;;;;;;;;;;;22.71;24.61;96850.50;4937544;29;952;-66
2023/02/10 07:51:39;;;;;;;;;;;;;;;22.73;24.52;96845.81;4937170;29;854;-65
2023/02/10 07:54:05;;;;;;;;;;;;;;;22.77;24.58;96848.97;4930110;29;1116;-66
2023/02/10 07:56:30;;;;;;;;;;;;;;;22.82;24.48;96852.78;4934569;28;1069;-65
2023/02/10 07:58:56;;;;;;;;;;;;;;;22.85;24.48;96847.09;4937070;29;887;-65
2023/02/10 08:01:21;;;;;;;;;;;;;;;22.89;24.54;96847.59;4936918;29;1969;-65
2023/02/10 08:03:46;;;;;;;;;;;;;;;22.90;24.54;96850.06;4936943;29;846;-65
2023/02/10 08:06:11;;;;;;;;;;;;;;;22.93;24.27;96848.88;4925031;29;1257;-66
2023/02/10 08:08:37;;;;;;;;;;;;;;;22.96;24.49;96853.09;4936486;29;877;-65
2023/02/10 08:11:06;;;;;;;;;;;;;;;22.99;24.43;96850.88;4936581;29;837;-65
2023/02/10 08:13:31;;;;;;;;;;;;;;;23.02;24.44;96847.03;4936765;29;788;-65
2023/02/10 08:15:57;;;;;;;;;;;;;;;23.04;24.31;96851.19;4936475;29;798;-65
2023/02/10 08:18:22;;;;;;;;;;;;;;;23.05;24.29;96844.84;4926949;29;956;-65
2023/02/10 08:20:47;;;;;;;;;;;;;;;23.09;24.44;96848.00;4936587;29;2006;-65
2023/02/10 08:23:14;;;;;;;;;;;;;;;23.08;24.52;96846.31;4936621;29;791;-68
2023/02/10 08:25:39;;;;;;;;;;;;;;;23.11;24.28;96844.16;4935122;29;1201;-65
2023/02/10 08:28:05;;;;;;;;;;;;;;;23.16;24.43;96840.09;4931023;29;1079;-65
2023/02/10 08:30:30;;;;;;;;;;;;;;;23.15;24.50;96841.94;4932150;29;1181;-65
2023/02/10 08:32:56;;;;;;;;;;;;;;;23.19;24.45;96840.56;4936268;29;925;-71
2023/02/10 08:35:22;;;;;;;;;;;;;;;23.19;24.61;96847.75;4936465;29;806;-65
2023/02/10 08:37:47;;;;;;;;;;;;;;;23.20;24.38;96842.25;4936112;29;857;-65
2023/02/10 08:40:12;;;;;;;;;;;;;;;23.21;24.30;96840.41;4926305;29;1199;-65
2023/02/10 08:42:37;;;;;;;;;;;;;;;23.25;24.43;96839.00;4935981;29;1894;-66
2023/02/10 08:45:03;;;;;;;;;;;;;;;23.29;24.45;96840.34;4935959;29;869;-65
2023/02/10 08:47:28;;;;;;;;;;;;;;;23.29;24.38;96835.81;4936262;29;978;-65
2023/02/10 08:49:53;;;;;;;;;;;;;;;23.28;24.24;96842.19;4936192;29;846;-65
2023/02/10 08:52:20;;;;;;;;;;;;;;;23.31;24.40;96841.84;4940869;28;1295;-66
2023/02/10 08:54:46;;;;;;;;;;;;;;;23.33;24.32;96842.47;4935886;29;901;-66
2023/02/10 08:57:11;;;;;;;;;;;;;;;23.32;24.39;96831.94;4936090;29;1031;-65
2023/02/10 08:59:36;;;;;;;;;;;;;;;23.32;24.27;96830.09;4935814;29;854;-66
2023/02/10 09:02:02;;;;;;;;;;;;;;;23.30;24.36;96834.78;4930602;29;1899;-65
2023/02/10 09:04:27;;;;;;;;;;;;;;;23.30;24.34;96826.75;4930657;29;1085;-65
2023/02/10 09:06:53;;;;;;;;;;;;;;;23.32;24.35;96826.59;4935652;29;1389;-65
2023/02/10 09:09:22;;;;;;;;;;;;;;;23.31;24.35;96825.75;4935627;29;790;-65
2023/02/10 09:11:47;;;;;;;;;;;;;;;23.30;24.37;96820.56;4934231;29;1406;-65
2023/02/10 09:14:13;;;;;;;;;;;;;;;23.31;24.26;96814.22;4925654;29;1060;-65
2023/02/10 09:16:38;;;;;;;;;;;;;;;23.30;24.40;96824.09;4935740;29;1011;-65
2023/02/10 09:19:04;;;;;;;;;;;;;;;23.33;24.38;96814.84;4934656;29;1003;-65
2023/02/10 09:21:29;;;;;;;;;;;;;;;23.33;24.26;96823.72;4934034;29;1903;-65
2023/02/10 09:23:55;;;;;;;;;;;;;;;23.32;24.18;96816.72;4935401;29;777;-65
2023/02/10 09:26:20;;;;;;;;;;;;;;;23.32;24.36;96818.56;4925582;29;1072;-67
2023/02/10 09:28:45;;;;;;;;;;;;;;;23.33;24.38;96818.38;4935752;29;891;-64
2023/02/10 09:31:11;;;;;;;;;;;;;;;23.33;24.38;96807.66;4935603;29;872;-64
2023/02/10 09:33:37;;;;;;;;;;;;;;;23.33;24.26;96806.81;4934239;29;1346;-64
2023/02/10 09:36:06;;;;;;;;;;;;;;;23.33;24.23;96806.81;4930551;29;1087;-64
2023/02/10 09:38:33;;;;;;;;;;;;;;;23.32;24.46;96803.31;4928942;29;1321;-64
2023/02/10 09:41:17;;;;;;;;;;;;;;;23.34;24.32;96809.34;4935195;29;1899;-65
2023/02/10 09:43:57;;;;;;;;;;;;;;;23.34;24.48;96801.31;4933933;29;1177;-65
2023/02/10 09:46:36;;;;;;;;;;;;;;;23.32;24.37;96799.81;4935129;29;857;-65
2023/02/10 09:49:01;;;;;;;;;;;;;;;23.33;24.25;96793.44;4925610;29;1108;-64
2023/02/10 09:51:39;;;;;;;;;;;;;;;23.31;24.52;96782.91;4935185;29;945;-66
2023/02/10 09:54:09;;;;;;;;;;;;;;;23.33;24.49;96788.06;4935117;29;905;-64
2023/02/10 09:56:35;;;;;;;;;;;;;;;23.29;24.49;96786.78;4933758;29;1205;-65
2023/02/10 09:59:00;;;;;;;;;;;;;;;23.30;24.42;96785.75;4928370;28;1159;-65
2023/02/10 10:01:29;;;;;;;;;;;;;;;23.29;24.63;96782.25;4931673;29;1966;-65
2023/02/10 10:04:05;;;;;;;;;;;;;;;23.31;24.65;96776.72;4935003;29;837;-65
2023/02/10 10:06:34;;;;;;;;;;;;;;;23.27;24.27;96770.88;4934701;29;1203;-65
2023/02/10 10:09:06;;;;;;;;;;;;;;;23.28;24.48;96769.88;4934985;29;869;-65
2023/02/10 10:11:34;;;;;;;;;;;;;;;23.30;24.56;96764.34;4925092;29;1169;-65
2023/02/10 10:13:59;;;;;;;;;;;;;;;23.28;24.68;96761.84;4935098;29;917;-65
2023/02/10 10:16:27;;;;;;;;;;;;;;;23.28;24.51;96752.97;4934982;29;930;-64
2023/02/10 10:19:12;;;;;;;;;;;;;;;23.26;24.53;96753.16;4934895;29;935;-64
2023/02/10 10:21:51;;;;;;;;;;;;;;;23.26;24.58;96750.47;4929982;29;1957;-64
2023/02/10 10:24:32;;;;;;;;;;;;;;;23.27;24.40;96751.31;4934250;29;967;-65
2023/02/10 10:27:04;;;;;;;;;;;;;;;23.27;24.63;96745.94;4934889;29;786;-65
2023/02/10 10:29:29;;;;;;;;;;;;;;;23.26;24.55;96741.63;4933716;29;1292;-65
2023/02/10 10:32:06;;;;;;;;;;;;;;;23.25;24.64;96739.94;4938345;29;782;-65
2023/02/10 10:34:34;;;;;;;;;;;;;;;23.26;24.42;96730.91;4928518;28;1013;-65
2023/02/10 10:37:00;;;;;;;;;;;;;;;23.24;24.56;96732.94;4938188;29;925;-65
2023/02/10 10:39:32;;;;;;;;;;;;;;;23.26;24.64;96730.91;4938221;29;819;-65
2023/02/10 10:42:00;;;;;;;;;;;;;;;23.26;24.76;96728.22;4938179;29;1961;-64
2023/02/10 10:44:29;;;;;;;;;;;;;;;23.24;24.61;96727.56;4946583;28;1203;-65
2023/02/10 10:47:08;;;;;;;;;;;;;;;23.26;24.66;96720.19;4935518;29;1137;-64
2023/02/10 10:49:34;;;;;;;;;;;;;;;23.26;24.36;96725.56;4938126;29;790;-65
2023/02/10 10:51:59;;;;;;;;;;;;;;;23.26;24.54;96721.03;4938012;29;770;-65
2023/02/10 10:54:25;;;;;;;;;;;;;;;23.26;24.51;96715.66;4937915;29;799;-65
2023/02/10 10:56:52;;;;;;;;;;;;;;;23.27;24.64;96716.50;4928119;29;1138;-69
2023/02/10 10:59:20;;;;;;;;;;;;;;;23.26;24.64;96725.56;4936611;29;1210;-65
2023/02/10 11:01:47;;;;;;;;;;;;;;;23.27;24.52;96706.59;4937753;29;1903;-65
2023/02/10 11:04:12;;;;;;;;;;;;;;;23.27;24.67;96700.44;4937839;29;798;-65
2023/02/10 11:06:39;;;;;;;;;;;;;;;23.26;24.64;96698.78;4934144;29;1201;-65
2023/02/10 11:09:13;;;;;;;;;;;;;;;23.27;24.60;96695.91;4931777;29;1153;-65
2023/02/10 11:11:40;;;;;;;;;;;;;;;23.26;24.67;96693.41;4952741;28;934;-65
2023/02/10 11:14:14;;;;;;;;;;;;;;;23.26;24.76;96690.75;4937640;29;791;-65
2023/02/10 11:16:44;;;;;;;;;;;;;;;23.28;24.76;96688.69;4937578;29;878;-64
2023/02/10 11:19:16;;;;;;;;;;;;;;;23.27;24.64;96687.88;4927829;29;968;-64
2023/02/10 11:21:42;;;;;;;;;;;;;;;23.29;24.49;96691.19;4952313;28;1906;-65
2023/02/10 11:24:26;;;;;;;;;;;;;;;23.26;24.66;96683.53;4937760;29;922;-64
2023/02/10 11:27:05;;;;;;;;;;;;;;;23.27;24.70;96679.84;4937723;29;798;-65
2023/02/10 11:29:32;;;;;;;;;;;;;;;23.27;24.66;96670.97;4932662;29;980;-65
2023/02/10 11:31:57;;;;;;;;;;;;;;;23.28;24.75;96667.25;4930990;29;1410;-65
2023/02/10 11:34:25;;;;;;;;;;;;;;;23.27;24.49;96662.94;4935995;29;1352;-65
2023/02/10 11:36:51;;;;;;;;;;;;;;;23.28;24.75;96665.44;4935959;29;1334;-70
2023/02/10 11:39:17;;;;;;;;;;;;;;;23.28;24.68;96660.09;4937195;29;834;-65
2023/02/10 11:41:42;;;;;;;;;;;;;;;23.28;24.77;96668.13;4926651;29;1958;-65
2023/02/10 11:44:23;;;;;;;;;;;;;;;23.27;24.67;96671.78;4937485;29;1445;-65
2023/02/10 11:46:59;;;;;;;;;;;;;;;23.29;24.68;96666.28;4937333;29;965;-66
2023/02/10 11:49:27;;;;;;;;;;;;;;;23.30;24.82;96670.59;4937490;29;811;-66
2023/02/10 11:51:54;;;;;;;;;;;;;;;23.32;24.69;96666.72;4936994;29;873;-65
2023/02/10 11:54:19;;;;;;;;;;;;;;;23.32;24.53;96660.56;4927166;29;1064;-65
2023/02/10 11:59:39;;;;;;;;;;;;;;;23.29;24.47;96650.19;4937092;29;704;-65
2023/02/10 12:02:19;;;;;;;;;;;;;;;23.28;24.60;96638.66;4936948;29;1968;-65
2023/02/10 12:05:07;;;;;;;;;;;;;;;23.28;24.71;96646.69;4927093;29;1083;-65
2023/02/10 12:07:50;;;;;;;;;;;;;;;23.30;24.86;96643.81;4936594;29;1417;-65
2023/02/10 12:10:15;;;;;;;;;;;;;;;23.31;24.72;96634.78;4951830;28;1461;-64
2023/02/10 12:12:42;;;;;;;;;;;;;;;23.30;24.59;96635.78;4937122;29;891;-65
2023/02/10 12:15:19;;;;;;;;;;;;;;;23.30;24.75;96625.06;4932033;29;1057;-65
2023/02/10 12:17:53;;;;;;;;;;;;;;;23.32;24.70;96626.56;4932258;29;1092;-64
2023/02/10 12:20:30;;;;;;;;;;;;;;;23.30;24.64;96622.41;4936803;29;814;-65
2023/02/10 12:23:04;;;;;;;;;;;;;;;23.30;24.73;96620.53;4936694;29;1983;-65
2023/02/10 12:25:36;;;;;;;;;;;;;;;23.31;24.57;96621.41;4936678;29;861;-65
2023/02/10 12:28:20;;;;;;;;;;;;;;;23.31;24.56;96618.72;4926649;29;1154;-65
2023/02/10 12:31:03;;;;;;;;;;;;;;;23.28;24.79;96617.25;4936851;29;837;-65
2023/02/10 12:33:39;;;;;;;;;;;;;;;23.29;24.68;96620.75;4936615;29;873;-64
2023/02/10 12:36:10;;;;;;;;;;;;;;;23.30;24.70;96614.38;4936660;29;901;-64
2023/02/10 12:38:50;;;;;;;;;;;;;;;23.30;24.80;96611.69;4926529;29;1038;-64
2023/02/10 12:41:15;;;;;;;;;;;;;;;23.28;24.74;96606.53;4936222;29;1974;-64
2023/02/10 12:43:44;;;;;;;;;;;;;;;23.29;24.88;96604.69;4936289;29;909;-64
2023/02/10 12:46:25;;;;;;;;;;;;;;;23.30;24.83;96609.84;4936455;29;798;-64
2023/02/10 12:48:54;;;;;;;;;;;;;;;23.30;24.76;96600.97;4932713;29;865;-67
2023/02/10 12:51:19;;;;;;;;;;;;;;;23.29;24.86;96604.69;4929648;29;1185;-64
2023/02/10 12:53:47;;;;;;;;;;;;;;;23.30;24.71;96612.50;4936154;29;921;-65
2023/02/10 12:56:20;;;;;;;;;;;;;;;23.30;24.59;96604.47;4936093;29;861;-65
2023/02/10 12:59:04;;;;;;;;;;;;;;;23.29;24.56;96607.34;4936058;29;825;-65
2023/02/10 13:01:31;;;;;;;;;;;;;;;23.30;24.76;96611.69;4926175;29;1985;-65
2023/02/10 13:04:02;;;;;;;;;;;;;;;23.28;24.69;96601.19;4935931;29;952;-65
2023/02/10 13:06:39;;;;;;;;;;;;;;;23.28;24.91;96605.69;4935804;29;1259;-65